createdAt,value
2019-04-14T00:00:16.989Z,58.60
2019-04-14T00:02:47.256Z,58.80
2019-04-14T00:05:16.948Z,59.00
2019-04-14T00:07:47.060Z,59.00
2019-04-14T00:10:18.141Z,59.20
2019-04-14T00:12:47.080Z,59.30
2019-04-14T00:15:24.370Z,59.30
2019-04-14T00:17:46.421Z,59.60
2019-04-14T00:20:15.034Z,59.50
2019-04-14T00:22:44.653Z,59.60
2019-04-14T00:25:13.408Z,59.70
2019-04-14T00:27:42.913Z,59.90
2019-04-14T00:30:16.498Z,59.70
2019-04-14T00:32:46.839Z,60.40
2019-04-14T00:35:23.126Z,60.00
2019-04-14T00:38:10.589Z,60.10
2019-04-14T00:40:41.053Z,60.10
2019-04-14T00:43:30.888Z,60.30
2019-04-14T00:46:07.984Z,60.40
2019-04-14T00:48:36.726Z,60.40
2019-04-14T00:51:06.961Z,60.60
2019-04-14T00:53:36.070Z,60.50
2019-04-14T00:56:04.624Z,60.70
2019-04-14T00:58:34.029Z,60.90
2019-04-14T01:01:02.935Z,61.10
2019-04-14T01:03:31.482Z,61.30
2019-04-14T01:06:01.067Z,61.60
2019-04-14T01:08:29.875Z,61.70
2019-04-14T01:10:58.449Z,62.10
2019-04-14T01:13:27.010Z,62.10
2019-04-14T01:16:03.795Z,62.30
2019-04-14T01:18:25.804Z,62.40
2019-04-14T01:20:55.579Z,62.70
2019-04-14T01:23:24.227Z,63.20
2019-04-14T01:25:52.758Z,63.50
2019-04-14T01:28:22.238Z,63.90
2019-04-14T01:30:50.832Z,64.10
2019-04-14T01:33:20.496Z,64.50
2019-04-14T01:35:49.206Z,64.70
2019-04-14T01:38:18.955Z,64.90
2019-04-14T01:40:48.748Z,65.90
2019-04-14T01:43:17.460Z,65.90
2019-04-14T01:45:58.110Z,66.20
2019-04-14T01:48:17.108Z,66.60
2019-04-14T01:51:00.562Z,66.80
2019-04-14T01:53:46.789Z,67.80
2019-04-14T01:56:32.567Z,67.40
2019-04-14T01:59:02.816Z,67.80
2019-04-14T02:01:33.029Z,67.90
2019-04-14T02:04:02.823Z,68.30
2019-04-14T02:06:33.126Z,68.50
2019-04-14T02:09:03.199Z,69.10
2019-04-14T02:11:31.835Z,69.30
2019-04-14T02:14:01.503Z,69.60
2019-04-14T02:16:37.848Z,70.00
2019-04-14T02:19:00.435Z,71.60
2019-04-14T02:21:30.177Z,71.00
2019-04-14T02:24:00.357Z,71.20
2019-04-14T02:26:29.145Z,71.80
2019-04-14T02:28:57.716Z,72.10
2019-04-14T02:31:46.833Z,72.20
2019-04-14T02:34:25.078Z,72.40
2019-04-14T02:36:56.871Z,72.70
2019-04-14T02:39:43.287Z,73.00
2019-04-14T02:42:06.968Z,73.00
2019-04-14T02:46:58.154Z,73.50
2019-04-14T02:49:29.484Z,73.60
2019-04-14T02:51:58.470Z,73.90
2019-04-14T02:57:03.476Z,74.50
2019-04-14T02:59:19.697Z,74.30
2019-04-14T03:02:09.631Z,74.40
2019-04-14T03:04:25.829Z,74.90
2019-04-14T03:06:55.019Z,74.90
2019-04-14T03:11:52.034Z,75.40
2019-04-14T03:14:30.828Z,75.90
2019-04-14T03:19:44.151Z,76.30
2019-04-14T03:22:23.701Z,76.40
2019-04-14T03:24:50.436Z,76.50
2019-04-14T03:27:39.819Z,77.10
2019-04-14T03:30:35.789Z,77.20
2019-04-14T03:33:14.196Z,77.90
2019-04-14T03:35:35.178Z,77.60
2019-04-14T03:40:08.472Z,77.70
2019-04-14T03:42:48.562Z,78.00
2019-04-14T03:45:16.702Z,77.60
2019-04-14T03:47:57.797Z,78.00
2019-04-14T03:50:16.084Z,78.70
2019-04-14T03:52:50.280Z,78.10
2019-04-14T03:55:09.373Z,78.10
2019-04-14T03:57:19.323Z,78.20
2019-04-14T03:59:47.936Z,78.30
2019-04-14T04:02:16.535Z,77.90
2019-04-14T04:04:45.110Z,78.50
2019-04-14T04:07:14.861Z,78.60
2019-04-14T04:10:05.107Z,78.60
2019-04-14T04:12:33.811Z,78.60
2019-04-14T04:15:02.327Z,78.80
2019-04-14T04:17:36.299Z,79.00
2019-04-14T04:20:08.877Z,79.40
2019-04-14T04:22:45.624Z,79.50
2019-04-14T04:25:44.441Z,79.40
2019-04-14T04:28:25.624Z,79.70
2019-04-14T04:31:02.445Z,79.80
2019-04-14T04:33:32.766Z,80.00
2019-04-14T04:36:12.220Z,80.40
2019-04-14T04:38:55.293Z,81.00
2019-04-14T04:41:23.922Z,80.90
2019-04-14T04:43:52.469Z,81.00
2019-04-14T04:46:22.043Z,81.50
2019-04-14T04:49:00.037Z,82.00
2019-04-14T04:51:20.932Z,82.30
2019-04-14T04:53:50.511Z,82.40
2019-04-14T04:56:19.090Z,82.50
2019-04-14T04:58:48.058Z,82.90
2019-04-14T05:01:16.754Z,82.80
2019-04-14T05:03:45.348Z,83.10
2019-04-14T05:06:43.643Z,83.80
2019-04-14T05:09:14.451Z,83.80
2019-04-14T05:11:44.819Z,83.30
2019-04-14T05:14:17.949Z,83.60
2019-04-14T05:16:46.558Z,85.00
2019-04-14T05:19:23.596Z,85.30
2019-04-14T05:21:45.286Z,85.20
2019-04-14T05:24:14.089Z,85.90
2019-04-14T05:26:43.740Z,85.60
2019-04-14T05:29:12.491Z,86.80
2019-04-14T05:31:41.048Z,87.00
2019-04-14T05:34:10.710Z,87.20
2019-04-14T05:36:39.391Z,87.10
2019-04-14T05:39:08.919Z,87.70
2019-04-14T05:41:37.623Z,87.80
2019-04-14T05:44:06.419Z,88.10
2019-04-14T05:46:36.016Z,88.10
2019-04-14T05:49:04.756Z,87.80
2019-04-14T05:51:33.319Z,88.30
2019-04-14T05:54:01.878Z,89.00
2019-04-14T05:56:31.648Z,88.60
2019-04-14T05:59:00.633Z,88.50
2019-04-14T06:01:29.242Z,88.90
2019-04-14T06:03:58.178Z,88.90
2019-04-14T06:06:26.745Z,88.70
2019-04-14T06:08:58.011Z,89.40
2019-04-14T06:11:27.238Z,89.30
2019-04-14T06:13:55.827Z,88.50
2019-04-14T06:16:24.428Z,89.40
2019-04-14T06:18:52.980Z,90.10
2019-04-14T06:21:21.504Z,90.30
2019-04-14T06:23:50.018Z,89.40
2019-04-14T06:26:18.509Z,90.10
2019-04-14T06:28:47.046Z,90.10
2019-04-14T06:31:33.733Z,90.30
2019-04-14T06:34:03.924Z,90.20
2019-04-14T06:36:34.187Z,90.40
2019-04-14T06:39:04.383Z,90.20
2019-04-14T06:41:32.951Z,90.40
2019-04-14T06:44:01.497Z,90.60
2019-04-14T06:46:30.209Z,90.60
2019-04-14T06:48:58.756Z,90.90
2019-04-14T06:51:27.365Z,90.30
2019-04-14T06:53:55.923Z,90.30
2019-04-14T06:56:24.528Z,90.60
2019-04-14T06:58:53.108Z,90.90
2019-04-14T07:01:21.673Z,90.80
2019-04-14T07:03:50.222Z,90.90
2019-04-14T07:06:18.854Z,90.70
2019-04-14T07:08:47.441Z,91.00
2019-04-14T07:11:16.039Z,91.00
2019-04-14T07:13:47.923Z,91.00
2019-04-14T07:16:14.883Z,91.00
2019-04-14T07:18:43.392Z,91.00
2019-04-14T07:21:11.958Z,91.00
2019-04-14T07:23:40.539Z,90.80
2019-04-14T07:26:09.183Z,90.80
2019-04-14T07:28:37.754Z,90.80
2019-04-14T07:31:23.052Z,91.10
2019-04-14T07:33:53.303Z,91.00
2019-04-14T07:36:26.440Z,91.10
2019-04-14T07:39:11.318Z,91.10
2019-04-14T07:41:41.629Z,91.20
2019-04-14T07:44:20.697Z,91.20
2019-04-14T07:46:50.943Z,91.00
2019-04-14T07:49:37.717Z,91.30
2019-04-14T07:52:10.973Z,90.90
2019-04-14T07:54:44.162Z,91.10
2019-04-14T07:57:14.411Z,91.20
2019-04-14T07:59:53.628Z,90.90
2019-04-14T08:02:28.118Z,90.90
2019-04-14T08:04:58.338Z,90.90
2019-04-14T08:07:27.621Z,91.40
2019-04-14T08:09:59.411Z,91.20
2019-04-14T08:12:27.988Z,91.20
2019-04-14T08:14:56.560Z,90.90
2019-04-14T08:17:25.134Z,91.10
2019-04-14T08:19:53.769Z,91.50
2019-04-14T08:22:22.408Z,91.20
2019-04-14T08:24:50.971Z,91.30
2019-04-14T08:27:19.543Z,90.60
2019-04-14T08:29:48.276Z,91.00
2019-04-14T08:32:16.892Z,91.10
2019-04-14T08:34:45.492Z,91.30
2019-04-14T08:37:14.126Z,91.20
2019-04-14T08:39:42.709Z,91.30
2019-04-14T08:42:16.019Z,90.80
2019-04-14T08:44:46.320Z,90.80
2019-04-14T08:47:28.504Z,90.90
2019-04-14T08:49:58.779Z,91.00
2019-04-14T08:52:31.907Z,90.90
2019-04-14T08:55:08.283Z,91.00
2019-04-14T08:57:47.135Z,90.70
2019-04-14T09:00:20.354Z,91.00
2019-04-14T09:03:05.662Z,90.70
2019-04-14T09:05:58.192Z,90.50
2019-04-14T09:08:44.829Z,91.00
2019-04-14T09:11:15.109Z,90.60
2019-04-14T09:13:43.730Z,91.00
2019-04-14T09:16:12.350Z,90.90
2019-04-14T09:18:40.964Z,90.90
2019-04-14T09:21:09.607Z,90.80
2019-04-14T09:23:38.268Z,91.00
2019-04-14T09:26:06.824Z,90.60
2019-04-14T09:28:35.448Z,90.40
2019-04-14T09:31:04.182Z,90.90
2019-04-14T09:33:32.806Z,90.70
2019-04-14T09:36:01.493Z,90.50
2019-04-14T09:38:30.148Z,90.60
2019-04-14T09:41:00.372Z,90.80
2019-04-14T09:43:28.976Z,90.50
2019-04-14T09:45:57.556Z,90.40
2019-04-14T09:48:26.176Z,90.50
2019-04-14T09:51:04.156Z,90.90
2019-04-14T09:53:25.096Z,90.20
2019-04-14T09:55:53.783Z,90.50
2019-04-14T09:58:22.393Z,90.60
2019-04-14T10:00:51.030Z,90.90
2019-04-14T10:03:19.664Z,90.40
2019-04-14T10:05:48.271Z,90.20
2019-04-14T10:08:16.898Z,90.50
2019-04-14T10:10:45.537Z,90.70
2019-04-14T10:13:14.101Z,90.80
2019-04-14T10:15:42.772Z,91.00
2019-04-14T10:18:15.869Z,90.20
2019-04-14T10:20:45.898Z,90.60
2019-04-14T10:23:14.538Z,90.00
2019-04-14T10:25:45.496Z,90.20
2019-04-14T10:28:15.473Z,90.10
2019-04-14T10:30:48.494Z,90.20
2019-04-14T10:33:36.374Z,90.20
2019-04-14T10:36:06.544Z,90.60
2019-04-14T10:38:39.097Z,89.70
2019-04-14T10:41:07.794Z,90.00
2019-04-14T10:43:36.472Z,90.10
2019-04-14T10:46:05.238Z,89.70
2019-04-14T10:48:33.857Z,90.00
2019-04-14T10:51:05.879Z,89.50
2019-04-14T10:53:36.231Z,90.10
2019-04-14T10:56:06.379Z,89.50
2019-04-14T10:58:35.005Z,89.70
2019-04-14T11:01:08.897Z,89.90
2019-04-14T11:03:39.152Z,90.10
2019-04-14T11:06:16.939Z,90.00
2019-04-14T11:08:46.961Z,90.10
2019-04-14T11:11:20.498Z,89.70
2019-04-14T11:13:49.492Z,90.10
2019-04-14T11:16:17.871Z,90.20
2019-04-14T11:18:48.013Z,90.20
2019-04-14T11:21:18.297Z,90.00
2019-04-14T11:23:46.871Z,89.50
2019-04-14T11:26:17.095Z,89.70
2019-04-14T11:28:51.112Z,90.10
2019-04-14T11:31:21.431Z,89.60
2019-04-14T11:34:01.758Z,90.30
2019-04-14T11:36:49.113Z,90.10
2019-04-14T11:39:19.438Z,90.50
2019-04-14T11:41:52.770Z,90.00
2019-04-14T11:44:21.546Z,90.10
2019-04-14T11:46:52.764Z,90.00
2019-04-14T11:49:23.515Z,90.00
2019-04-14T11:51:57.198Z,89.00
2019-04-14T11:54:27.856Z,89.50
2019-04-14T11:56:59.262Z,88.70
2019-04-14T11:59:35.331Z,88.50
2019-04-14T12:02:05.631Z,89.00
2019-04-14T12:04:44.971Z,88.80
2019-04-14T12:07:31.529Z,87.70
2019-04-14T12:10:03.387Z,86.90
2019-04-14T12:12:32.091Z,87.50
2019-04-14T12:15:00.767Z,86.50
2019-04-14T12:17:29.494Z,85.70
2019-04-14T12:19:58.181Z,86.00
2019-04-14T12:22:26.862Z,85.90
2019-04-14T12:24:55.415Z,85.20
2019-04-14T12:27:25.599Z,86.90
2019-04-14T12:29:54.477Z,84.60
2019-04-14T12:32:25.907Z,82.70
2019-04-14T12:34:56.035Z,82.50
2019-04-14T12:37:24.667Z,81.70
2019-04-14T12:39:53.471Z,81.60
2019-04-14T12:42:23.788Z,81.60
2019-04-14T12:44:58.585Z,81.90
2019-04-14T12:47:45.404Z,82.00
2019-04-14T12:50:19.739Z,81.00
2019-04-14T12:52:48.420Z,80.90
2019-04-14T12:55:19.561Z,80.30
2019-04-14T12:57:51.371Z,80.90
2019-04-14T13:00:23.475Z,79.90
2019-04-14T13:02:56.090Z,81.60
2019-04-14T13:05:27.222Z,80.90
2019-04-14T13:07:55.911Z,82.50
2019-04-14T13:10:24.583Z,81.60
2019-04-14T13:12:55.746Z,82.20
2019-04-14T13:15:24.327Z,84.10
2019-04-14T13:17:52.955Z,83.30
2019-04-14T13:20:24.946Z,83.80
2019-04-14T13:22:55.686Z,82.20
2019-04-14T13:25:24.423Z,81.80
2019-04-14T13:27:55.005Z,81.90
2019-04-14T13:30:25.803Z,80.30
2019-04-14T13:32:54.449Z,80.60
2019-04-14T13:35:23.045Z,79.70
2019-04-14T13:37:51.737Z,79.10
2019-04-14T13:40:20.837Z,80.40
2019-04-14T13:42:49.495Z,81.40
2019-04-14T13:45:18.155Z,79.00
2019-04-14T13:47:46.841Z,79.30
2019-04-14T13:50:16.081Z,78.30
2019-04-14T13:52:47.164Z,77.80
2019-04-14T13:55:15.154Z,77.80
2019-04-14T13:57:43.814Z,76.20
2019-04-14T14:00:20.655Z,77.70
2019-04-14T14:02:49.246Z,76.60
2019-04-14T14:05:17.870Z,75.20
2019-04-14T14:07:46.643Z,75.30
2019-04-14T14:10:15.952Z,74.50
2019-04-14T14:12:48.689Z,73.50
2019-04-14T14:15:20.930Z,73.00
2019-04-14T14:17:59.939Z,73.50
2019-04-14T14:20:35.309Z,70.90
2019-04-14T14:23:20.959Z,70.00
2019-04-14T14:25:59.821Z,67.70
2019-04-14T14:28:28.491Z,66.70
2019-04-14T14:30:58.188Z,66.20
2019-04-14T14:33:26.822Z,66.10
2019-04-14T14:35:56.001Z,64.20
2019-04-14T14:38:25.774Z,64.30
2019-04-14T14:40:55.631Z,65.30
2019-04-14T14:43:24.665Z,63.20
2019-04-14T14:45:54.953Z,63.20
2019-04-14T14:48:28.107Z,63.10
2019-04-14T14:50:58.773Z,61.50
2019-04-14T14:53:28.901Z,61.60
2019-04-14T14:55:58.635Z,61.00
2019-04-14T14:58:27.253Z,60.30
2019-04-14T15:00:55.923Z,59.80
2019-04-14T15:03:24.545Z,60.10
2019-04-14T15:05:53.176Z,60.40
2019-04-14T15:08:22.101Z,60.00
2019-04-14T15:10:50.873Z,61.50
2019-04-14T15:13:19.545Z,61.70
2019-04-14T15:15:48.158Z,62.10
2019-04-14T15:18:16.768Z,62.30
2019-04-14T15:20:45.404Z,62.20
2019-04-14T15:23:24.289Z,63.60
2019-04-14T15:25:44.348Z,63.30
2019-04-14T15:28:15.621Z,64.50
2019-04-14T15:30:43.680Z,64.40
2019-04-14T15:33:12.344Z,64.90
2019-04-14T15:35:42.541Z,65.40
2019-04-14T15:38:11.561Z,65.40
2019-04-14T15:40:41.795Z,65.70
2019-04-14T15:43:10.377Z,64.70
2019-04-14T15:45:39.134Z,65.50
2019-04-14T15:48:07.720Z,66.00
2019-04-14T15:50:37.654Z,65.20
2019-04-14T15:53:06.318Z,64.60
2019-04-14T15:55:36.524Z,63.50
2019-04-14T15:58:16.100Z,62.90
2019-04-14T16:00:55.660Z,62.40
2019-04-14T16:03:28.889Z,62.80
2019-04-14T16:06:02.589Z,62.20
2019-04-14T16:08:32.842Z,62.50
2019-04-14T16:11:09.222Z,61.60
2019-04-14T16:13:39.511Z,61.00
2019-04-14T16:16:12.423Z,59.10
2019-04-14T16:18:46.940Z,59.60
2019-04-14T16:21:15.757Z,59.20
2019-04-14T16:23:50.823Z,58.70
2019-04-14T16:26:20.386Z,59.30
2019-04-14T16:28:50.752Z,58.50
2019-04-14T16:31:37.471Z,58.50
2019-04-14T16:34:14.793Z,58.70
2019-04-14T16:36:45.368Z,58.80
2019-04-14T16:39:15.177Z,58.50
2019-04-14T16:41:43.871Z,59.10
2019-04-14T16:44:14.043Z,59.20
2019-04-14T16:46:47.513Z,59.60
2019-04-14T16:49:16.215Z,59.10
2019-04-14T16:51:52.897Z,59.10
2019-04-14T16:54:25.704Z,59.70
2019-04-14T16:57:13.130Z,60.80
2019-04-14T16:59:41.830Z,59.40
2019-04-14T17:02:11.377Z,59.70
2019-04-14T17:04:41.805Z,60.60
2019-04-14T17:07:10.633Z,60.30
2019-04-14T17:09:39.188Z,60.10
2019-04-14T17:12:08.905Z,60.40
2019-04-14T17:14:43.411Z,59.70
2019-04-14T17:17:18.347Z,59.80
2019-04-14T17:19:50.192Z,59.40
2019-04-14T17:22:23.655Z,60.40
2019-04-14T17:25:18.838Z,60.50
2019-04-14T17:28:04.452Z,60.70
2019-04-14T17:30:46.835Z,61.50
2019-04-14T17:33:17.355Z,61.00
2019-04-14T17:35:57.211Z,61.80
2019-04-14T17:38:33.385Z,62.50
2019-04-14T17:41:19.823Z,61.40
2019-04-14T17:43:53.465Z,61.60
2019-04-14T17:46:29.665Z,61.90
2019-04-14T17:49:17.395Z,62.30
2019-04-14T17:51:56.227Z,62.30
2019-04-14T17:54:35.779Z,62.30
2019-04-14T17:57:21.282Z,61.70
2019-04-14T18:00:07.988Z,62.50
2019-04-14T18:02:38.395Z,61.60
2019-04-14T18:05:09.837Z,61.40
2019-04-14T18:07:43.704Z,61.00
2019-04-14T18:10:18.791Z,60.90
2019-04-14T18:13:02.457Z,60.90
2019-04-14T18:15:36.819Z,61.30
2019-04-14T18:18:09.655Z,61.50
2019-04-14T18:20:41.718Z,61.00
2019-04-14T18:23:12.560Z,61.20
2019-04-14T18:25:43.395Z,61.70
2019-04-14T18:28:19.561Z,61.80
2019-04-14T18:30:49.861Z,61.80
2019-04-14T18:33:30.947Z,62.80
2019-04-14T18:36:02.138Z,62.30
2019-04-14T18:38:50.569Z,62.60
2019-04-14T18:41:27.627Z,63.00
2019-04-14T18:44:14.332Z,62.90
2019-04-14T18:46:46.634Z,63.20
2019-04-14T18:49:19.735Z,63.60
2019-04-14T18:51:53.493Z,63.40
2019-04-14T18:54:23.975Z,63.70
2019-04-14T18:56:54.211Z,63.90
2019-04-14T18:59:29.380Z,64.00
2019-04-14T19:02:01.249Z,63.80
2019-04-14T19:04:31.521Z,64.20
2019-04-14T19:07:00.758Z,64.40
2019-04-14T19:09:32.830Z,64.10
2019-04-14T19:12:06.086Z,64.40
2019-04-14T19:14:40.555Z,64.20
2019-04-14T19:17:17.140Z,64.00
2019-04-14T19:20:00.782Z,63.90
2019-04-14T19:22:20.975Z,63.60
2019-04-14T19:24:50.117Z,63.70
2019-04-14T19:27:20.338Z,63.90
2019-04-14T19:29:53.607Z,64.00
2019-04-14T19:32:21.988Z,64.30
2019-04-14T19:34:51.673Z,64.20
2019-04-14T19:37:21.463Z,64.00
2019-04-14T19:39:52.338Z,64.00
2019-04-14T19:42:21.182Z,64.10
2019-04-14T19:44:53.888Z,63.80
2019-04-14T19:47:22.587Z,63.80
2019-04-14T19:49:51.254Z,64.00
2019-04-14T19:52:19.968Z,63.40
2019-04-14T19:54:48.562Z,63.60
2019-04-14T19:57:17.254Z,63.50
2019-04-14T19:59:46.212Z,63.40
2019-04-14T20:02:15.609Z,63.20
2019-04-14T20:04:44.261Z,63.20
2019-04-14T20:07:13.284Z,63.30
2019-04-14T20:09:42.005Z,63.20
2019-04-14T20:12:10.661Z,63.20
2019-04-14T20:14:41.621Z,63.50
2019-04-14T20:17:18.754Z,63.60
2019-04-14T20:20:03.414Z,63.50
2019-04-14T20:22:33.766Z,63.50
2019-04-14T20:25:07.141Z,63.60
2019-04-14T20:27:43.433Z,63.70
2019-04-14T20:30:16.847Z,64.30
2019-04-14T20:32:45.964Z,63.50
2019-04-14T20:35:14.966Z,63.80
2019-04-14T20:37:45.098Z,63.80
2019-04-14T20:40:13.962Z,63.90
2019-04-14T20:42:42.664Z,64.20
2019-04-14T20:45:13.098Z,64.20
2019-04-14T20:47:41.752Z,64.30
2019-04-14T20:50:10.575Z,64.50
2019-04-14T20:52:39.390Z,64.70
2019-04-14T20:55:08.361Z,64.60
2019-04-14T20:57:36.944Z,64.80
2019-04-14T21:00:06.706Z,64.70
2019-04-14T21:02:53.268Z,65.00
2019-04-14T21:05:33.163Z,65.20
2019-04-14T21:08:19.599Z,65.30
2019-04-14T21:10:52.561Z,65.20
2019-04-14T21:13:40.955Z,65.60
2019-04-14T21:16:27.700Z,65.90
2019-04-14T21:18:59.465Z,65.80
2019-04-14T21:21:29.693Z,65.80
2019-04-14T21:24:00.104Z,65.60
2019-04-14T21:26:45.576Z,65.80
2019-04-14T21:29:26.409Z,66.10
2019-04-14T21:31:56.593Z,66.00
2019-04-14T21:34:32.655Z,66.10
2019-04-14T21:37:08.854Z,66.30
2019-04-14T21:39:44.851Z,66.00
2019-04-14T21:42:14.538Z,65.90
2019-04-14T21:44:43.244Z,66.00
2019-04-14T21:47:11.840Z,66.00
2019-04-14T21:49:40.360Z,66.00
2019-04-14T21:52:10.524Z,65.80
2019-04-14T21:54:40.756Z,65.80
2019-04-14T21:57:13.723Z,65.70
2019-04-14T22:00:00.013Z,65.70
2019-04-14T22:02:45.251Z,65.80
2019-04-14T22:05:31.897Z,65.40
2019-04-14T22:08:02.151Z,65.30
2019-04-14T22:10:41.415Z,65.40
2019-04-14T22:13:10.059Z,65.40
2019-04-14T22:15:38.712Z,65.50
2019-04-14T22:18:07.264Z,65.30
2019-04-14T22:20:35.791Z,65.30
2019-04-14T22:23:06.041Z,65.20
2019-04-14T22:25:34.710Z,65.10
2019-04-14T22:28:03.236Z,65.20
2019-04-14T22:30:31.794Z,65.10
2019-04-14T22:33:00.312Z,65.20
2019-04-14T22:35:28.875Z,64.90
2019-04-14T22:37:57.441Z,64.90
2019-04-14T22:40:26.009Z,64.90
2019-04-14T22:42:54.599Z,64.70
2019-04-14T22:45:23.136Z,64.60
2019-04-14T22:47:51.698Z,64.60
2019-04-14T22:50:20.243Z,64.40
2019-04-14T22:52:48.744Z,64.30
2019-04-14T22:55:17.209Z,64.20
2019-04-14T22:57:45.691Z,64.10
2019-04-14T23:00:18.943Z,63.80
2019-04-14T23:02:58.143Z,63.90
2019-04-14T23:05:40.218Z,63.70
2019-04-14T23:08:13.090Z,63.60
2019-04-14T23:10:59.694Z,63.10
2019-04-14T23:13:32.586Z,62.90
2019-04-14T23:16:19.046Z,62.70
2019-04-14T23:18:58.051Z,62.70
2019-04-14T23:21:28.164Z,62.70
2019-04-14T23:24:13.343Z,62.30
2019-04-14T23:26:51.747Z,62.20
2019-04-14T23:29:12.051Z,61.90
2019-04-14T23:31:40.547Z,61.40
2019-04-14T23:34:09.054Z,60.70
2019-04-14T23:36:37.606Z,60.20
2019-04-14T23:39:09.160Z,60.00
2019-04-14T23:41:37.803Z,60.10
2019-04-14T23:44:06.385Z,60.00
2019-04-14T23:46:34.857Z,60.20
2019-04-14T23:49:03.445Z,60.20
2019-04-14T23:51:31.947Z,60.60
2019-04-14T23:54:00.427Z,60.50
2019-04-14T23:56:29.027Z,60.70
2019-04-14T23:58:57.503Z,60.50
